Burke, South Dakota
Current Conditions -  °F | °C
As of 6:53 PM on Tuesday 21 Oct 2014 (Local Time) from KICR Reporting Station
Clear Clear  
Wind Chill: 73°   Ceiling: Unl
Heat Index: 73°   Visibility: 10mi
Dew Point: 38°   Wind: 15mph
Humidity: 28%   Direction: 160°SSE
Pressure: 29.83"   Gusts: NA
Location:  43.18°N, 99.29°W
Report Text: KICR 212353Z AUTO 16013KT 10SM CLR 23/03 A2983 RMK AO2 SLP089 T02280033 10278 20228 56003
Loading
Personal Weather Stations






























Interactive Weather Map
Tropical Storm Tracking
New forecast layout! Learn more

10-Day Weather Forecast

Advertisements
Track Severe Weather on mobile